D/T METAR WX W/DIR W/SPE G/SPE TEMP DEWP
23/05/19 12:50 EGXT 231150Z 27011KT 9999 FEW046 19/07 Q1015 BLU W (270°) 12.7mph 19°C 7°C
23/05/19 11:50 EGXT 231050Z 25009KT 9999 FEW044 SCT240 17/07 Q1015 BLU WSW (250°) 10.4mph 17°C 7°C
23/05/19 10:50 EGXT 230950Z 26009KT 9999 FEW040 17/07 Q1016 BLU W (260°) 10.4mph 17°C 7°C
23/05/19 09:50 EGXT 230850Z 25006KT 9999 FEW040 SCT200 16/07 Q1016 BLU WSW (250°) 6.9mph 16°C 7°C
23/05/19 08:50 EGXT 230750Z 25004KT CAVOK 14/08 Q1016 BLU WSW (250°) 4.6mph 14°C 8°C
23/05/19 07:50 EGXT 230650Z 27005KT CAVOK 13/09 Q1016 BLU W (270°) 5.8mph 13°C 9°C
23/05/19 06:50 EGXT 230550Z 27004KT CAVOK 10/08 Q1016 BLU W (270°) 4.6mph 10°C 8°C
23/05/19 05:50 EGXT 230450Z AUTO 27003KT 9999 FEW200/// 08/06 Q1016 W (270°) 3.5mph 8°C 6°C
23/05/19 04:50 EGXT 230350Z AUTO 27003KT 9999 SCT210/// 07/05 Q1016 W (270°) 3.5mph 7°C 5°C
23/05/19 03:50 EGXT 230250Z AUTO 26003KT 9999 NCD 08/06 Q1016 W (260°) 3.5mph 8°C 6°C
23/05/19 02:50 EGXT 230150Z AUTO 26005KT 9999 NCD 09/07 Q1016 W (260°) 5.8mph 9°C 7°C
23/05/19 01:50 EGXT 230050Z AUTO 31005KT 9999 BKN140/// 11/08 Q1017 NW (310°) 5.8mph 11°C 8°C
23/05/19 00:50 EGXT 222350Z AUTO 31004KT 9999 OVC130/// 12/08 Q1016 NW (310°) 4.6mph 12°C 8°C
22/05/19 23:50 EGXT 222250Z AUTO 30004KT 9999 OVC150/// 13/07 Q1017 WNW (300°) 4.6mph 13°C 7°C
22/05/19 22:50 EGXT 222150Z AUTO 27006KT 9999 FEW060/// OVC140/// 14/07 Q1017 W (270°) 6.9mph 14°C 7°C
22/05/19 21:50 EGXT 222050Z AUTO 24006KT 9999 OVC140/// 14/06 Q1017 WSW (240°) 6.9mph 14°C 6°C
22/05/19 20:50 EGXT 221950Z AUTO 22006KT 9999 BKN140/// 14/06 Q1017 SW (220°) 6.9mph 14°C 6°C
22/05/19 19:50 EGXT 221850Z AUTO 24006KT 9999 BKN150/// 17/07 Q1017 WSW (240°) 6.9mph 17°C 7°C
22/05/19 18:50 EGXT 221750Z AUTO 25010KT 9999 FEW110/// 18/06 Q1017 WSW (250°) 11.5mph 18°C 6°C
22/05/19 17:50 EGXT 221650Z AUTO 24011KT 9999 SCT070/// 19/05 Q1017 WSW (240°) 12.7mph 19°C 5°C
22/05/19 16:50 EGXT 221550Z 25012KT CAVOK 19/05 Q1017 BLU WSW (250°) 13.8mph 19°C 5°C
22/05/19 15:50 EGXT 221450Z 25013KT CAVOK 19/05 Q1018 BLU WSW (250°) 15.0mph 19°C 5°C
22/05/19 14:50 EGXT 221350Z 25011KT CAVOK 17/05 Q1018 BLU WSW (250°) 12.7mph 17°C 5°C
22/05/19 13:50 EGXT 221250Z 22011KT 9999 FEW048 BKN170 18/06 Q1018 BLU SW (220°) 12.7mph 18°C 6°C
22/05/19 12:50 EGXT 221150Z 24011KT 9999 FEW046 SCT120 BKN180 17/06 Q1019 BLU WSW (240°) 12.7mph 17°C 6°C
22/05/19 11:50 EGXT 221050Z 21008KT 9999 SCT045 SCT110 17/07 Q1019 BLU SSW (210°) 9.2mph 17°C 7°C
22/05/19 10:50 EGXT 220950Z 23005KT CAVOK 16/08 Q1019 BLU SW (230°) 5.8mph 16°C 8°C
22/05/19 09:50 EGXT 220850Z 24006KT CAVOK 14/06 Q1019 BLU WSW (240°) 6.9mph 14°C 6°C
22/05/19 08:50 EGXT 220750Z 26007KT CAVOK 13/07 Q1019 BLU W (260°) 8.1mph 13°C 7°C
22/05/19 07:50 EGXT 220650Z 24005KT CAVOK 12/07 Q1019 BLU WSW (240°) 5.8mph 12°C 7°C
22/05/19 06:50 EGXT 220550Z 30004KT CAVOK 09/06 Q1019 BLU WNW (300°) 4.6mph 9°C 6°C
22/05/19 05:50 EGXT 220450Z AUTO 31006KT 9999 BKN080/// BKN170/// 09/05 Q1019 NW (310°) 6.9mph 9°C 5°C
22/05/19 04:50 EGXT 220350Z AUTO 32006KT 9999 BKN080/// OVC170/// 09/05 Q1019 NW (320°) 6.9mph 9°C 5°C
22/05/19 03:50 EGXT 220250Z AUTO 31007KT 9999 OVC180/// 09/05 Q1019 NW (310°) 8.1mph 9°C 5°C
22/05/19 02:50 EGXT 220150Z AUTO 30006KT 9999 OVC180/// 09/04 Q1019 WNW (300°) 6.9mph 9°C 4°C
22/05/19 01:50 EGXT 220050Z AUTO 30009KT 9999 OVC170/// 09/04 Q1019 WNW (300°) 10.4mph 9°C 4°C
22/05/19 00:50 EGXT 212350Z AUTO 30007KT 9999 OVC180/// 09/04 Q1019 WNW (300°) 8.1mph 9°C 4°C
21/05/19 23:50 EGXT 212250Z AUTO 30008KT 9999 BKN190/// 09/02 Q1019 WNW (300°) 9.2mph 9°C 2°C
21/05/19 22:50 EGXT 212150Z AUTO 28006KT 9999 NCD 10/01 Q1019 W (280°) 6.9mph 10°C 1°C
21/05/19 21:50 EGXT 212050Z AUTO 27008KT 9999 NCD 11/02 Q1019 W (270°) 9.2mph 11°C 2°C
21/05/19 20:50 EGXT 211950Z AUTO 28009KT //// NCD 14/03 Q1018 W (280°) 10.4mph 14°C 3°C
21/05/19 19:50 EGXT 211850Z AUTO 29012KT 9999 NCD 16/04 Q1018 WNW (290°) 13.8mph 16°C 4°C
21/05/19 18:50 EGXT 211750Z AUTO 29014KT 9999 NCD 17/06 Q1018 WNW (290°) 16.1mph 17°C 6°C
21/05/19 17:50 EGXT 211650Z AUTO 28014KT 9999 SCT050/// 18/07 Q1017 W (280°) 16.1mph 18°C 7°C
21/05/19 16:50 EGXT 211550Z AUTO 30008KT 9999 BKN050/// 18/08 Q1017 WNW (300°) 9.2mph 18°C 8°C
21/05/19 15:50 EGXT 211450Z 32007KT CAVOK 19/08 Q1017 BLU NW (320°) 8.1mph 19°C 8°C
21/05/19 14:50 EGXT 211350Z 30009KT 9999 BKN047 19/07 Q1017 BLU WNW (300°) 10.4mph 19°C 7°C
21/05/19 13:50 EGXT 211250Z 31009KT 9999 SCT045 18/07 Q1017 BLU NW (310°) 10.4mph 18°C 7°C